CLASSIFICA

MARATONINA CITTA DI FIUMICINO

11/11/2018

DIVISIONI:
10KM     21KM     CLASSIFICA:   ASSOLUTA    M     F    
CATEGORIE:   TUTTE    |   B   |   C   |   D   |   E   |   F   |   G   |   H   |   I   |   L   |   L1   |   M   |   N   |   O   |   P   |   Q   |   R   |   S   |   S1  
ALTRO: Classifica squadre 
FILTRO:
  Atleta      Team        Pulisci       Atleti classificati 21KM: 1147  

Cliccare sulle colonne per cambiare ordinamento
Azioni - Pos. M/F Cat. P.Cat. Pett Naz Atleta Squadra Tempo Distacco in tempo Distacco in metri Min/Km RealTime
1 99E0573INDELICATO MARCOG.S. BANCARI ROMANI01:17:00 00:07:58 2.172 00:03:40 01:17:00
2 1616E113SCARANARI ANDREAPODISTICA MARE DI ROMA01:19:19 00:10:17 2.722 00:03:47 01:19:19
3 2020E239D'ERRIGO MAUROPOD. GRUPPO SOLIDARIETA01:19:46 00:10:44 2.825 00:03:48 01:19:46
4 2121E3568EROBUSTI FABIOG.S. BANCARI ROMANI01:19:51 00:10:49 2.844 00:03:48 01:19:51
5 2424E487ZUFFRANIERI FABIOA.S.D. ROMA ROAD RUNNERS CLUB01:20:19 00:11:17 2.950 00:03:50 01:20:19
6 2525E578SLETTEHAUGH NEIL ALANPOD. GRUPPO SOLIDARIETA01:20:20 00:11:18 2.953 00:03:50 01:20:20
7 3939E642ZAMPARELLI UGOA.S.D. LBM SPORT TEAM01:21:48 00:12:46 3.277 00:03:54 01:21:47
8 4444E7909BRANCA SALVATOREA.S.D. PFIZER ITALIA RUNNING TEAM01:22:24 00:13:22 3.406 00:03:55 01:22:20
9 4545E8646PIERDOMENICO GIANLUCAA.S.D. ANGUILLARA SABAZIA RUNNING CLUB01:22:25 00:13:23 3.410 00:03:56 01:22:25
10 5251E9614DEL MORO DANILORUNCARD - INDIVIDUALI01:23:49 00:14:47 3.703 00:04:00 01:23:49
11 5857E1086LAURI BENEDETTOASD SEMPRE DI CORSA TEAM01:24:46 00:15:44 3.897 00:04:02 01:24:46
12 6160E11665DALLAGO GIANNIASD SPIRITI LIBERI POMEZIA01:25:04 00:16:02 3.958 00:04:03 01:25:04
13 6766E12703BOUDOUMA YAHYASABINA MARATHON CLUB01:25:49 00:16:47 4.107 00:04:05 01:25:49
14 7069E131138BARBAROSSA SIMONEATLETICA FORUM SPORT CENTER01:26:04 00:17:02 4.156 00:04:06 01:25:56
15 7372E14570FORMAI RICCARDOG.S. BANCARI ROMANI01:26:22 00:17:20 4.214 00:04:07 01:26:12
16 7473E151159DOLDI CORRADOPODISTICA 2007 TOR TRE TESTE01:26:26 00:17:24 4.227 00:04:07 01:26:26
17 7574E1647DI COCCO ANDREAA.S.D. LBM SPORT TEAM01:26:31 00:17:29 4.243 00:04:07 01:26:29
18 8382E17974CIRELLI GIUSEPPEASD SPIRITI LIBERI POMEZIA01:26:57 00:17:55 4.327 00:04:08 01:26:38
19 8483E1852MAZZOLI ANGELOG.S. BANCARI ROMANI01:27:02 00:18:00 4.343 00:04:09 01:27:02
20 8887E19985COLETTA MARIANOCALCATERRA SPORT ASD01:27:23 00:18:21 4.409 00:04:10 01:27:06
21 9291E201147FOGGIA MASSIMILIANOATLETICA FORUM SPORT CENTER01:27:33 00:18:31 4.441 00:04:10 01:27:05
22 102101E2170DE PAOLA FABIOPOD. GRUPPO SOLIDARIETA01:28:07 00:19:05 4.547 00:04:12 01:28:07
23 107106E221037FERRARA BORISO.S.O. OLD STARS OSTIA01:28:29 00:19:27 4.616 00:04:13 01:28:28
24 112111E2363SORIANI STEFANORUNNERS FOR EMERGENCY01:28:41 00:19:39 4.653 00:04:13 01:28:40
25 117115E24822CARDINI PAOLOSPARTAN SPORT ACADEMY01:28:47 00:19:45 4.671 00:04:14 01:28:38
26 119117E251164ASHKRE AMDEUHN AYELG.S. CAT SPORT ROMA01:28:49 00:19:47 4.677 00:04:14 01:28:12
27 124121E26192CHELONI ALESSANDROA.S.D. RUNFOREVER APRILIA01:28:59 00:19:57 4.708 00:04:14 01:28:36
28 135132E271128SACCOCCI ALESSIOG.S. BANCARI ROMANI01:29:27 00:20:25 4.793 00:04:16 01:29:19
29 155150E28823GAROFALO LIBORIOSPARTAN SPORT ACADEMY01:30:23 00:21:21 4.960 00:04:18 01:30:08
30 156151E291031CIGNITTI MASSIMILIANOITALIANA RUNNING ASD01:30:27 00:21:25 4.972 00:04:18 01:30:14
31 158153E301045GIOVAGNOLI VALERIOS.S. LAZIO ATLETICA01:30:41 00:21:39 5.013 00:04:19 01:30:23
32 161156E31544VOLPETTI ALESSANDROA.S.D. THREE FOUR FUN01:30:49 00:21:47 5.037 00:04:20 01:30:41
33 170165E32917PICCIRILLO MASSIMOA.S.D. PFIZER ITALIA RUNNING TEAM01:31:23 00:22:21 5.136 00:04:21 01:31:07
34 172167E33236DI BLASI FABRIZIOTIBURTINA RUNNING01:31:28 00:22:26 5.150 00:04:21 01:31:27
35 173168E3436BASCIANO GIANLUCAASD PUROSANGUE ATHLETICS CLUB01:31:30 00:22:28 5.156 00:04:21 01:31:14
36 174169E3577ROMANO ANDREAPOD. GRUPPO SOLIDARIETA01:31:30 00:22:28 5.156 00:04:21 01:31:30
37 178173E36515VERZINO ANTONIOA.S. AMATORI VILLA PAMPHILI01:31:40 00:22:38 5.185 00:04:22 01:31:38
38 182177E37656SABEZ ALESSANDROJUVENIA SSD A.R.L.01:32:01 00:22:59 5.245 00:04:23 01:31:52
39 189184E381099ARIGONI ALESSANDROG.S. BANCARI ROMANI01:32:15 00:23:13 5.285 00:04:24 01:31:40
40 208201E39399PERSICHETTI GIAN PIEROG.S. CERVETERI RUNNERS01:33:04 00:24:02 5.422 00:04:26 01:32:41
41 211204E40318GORI GIANLUCAGP M. DELLA TOLFA L'AIRONE01:33:21 00:24:19 5.470 00:04:27 01:33:08
42 215207E41430STAZI MAUROG.S. FIAMME AZZURRE01:33:38 00:24:36 5.517 00:04:28 01:33:04
43 220212E4272ALBA GIANLUCAPOD. GRUPPO SOLIDARIETA01:33:56 00:24:54 5.566 00:04:28 01:33:56
44 223215E431084SIMONELLI MARCOA.S.D. GO RUNNING01:34:15 00:25:13 5.618 00:04:29 01:33:19
45 224216E441083SCHIOPPO PIEROA.S.D. GO RUNNING01:34:16 00:25:14 5.621 00:04:29 01:33:21
46 225217E45231BULTRINI AGOSTINOTIBURTINA RUNNING01:34:18 00:25:16 5.626 00:04:29 01:33:42
47 227219E46255BIZZARRI SERGIOPOD. OSTIA01:34:21 00:25:19 5.634 00:04:30 01:34:15
48 232224E47673GENTILE MARCOA.S.D. ROMA ROAD RUNNERS CLUB01:34:26 00:25:24 5.648 00:04:30 01:33:55
49 240231E481339MONTEFORTE MASSIMILIANOASD PUROSANGUE ATHLETICS CLUB01:34:35 00:25:33 5.672 00:04:30 01:34:20
50 243234E49897GIANNI LORENZOASD PUROSANGUE ATHLETICS CLUB01:34:35 00:25:33 5.672 00:04:30 01:34:20
51 244235E501102CAPONERI MARCOG.S. BANCARI ROMANI01:34:36 00:25:34 5.675 00:04:30 01:34:21
52 246237E51891DOMENICI ANTONIOASD PUROSANGUE ATHLETICS CLUB01:34:36 00:25:34 5.675 00:04:30 01:34:21
53 248239E52427ROMA PATRIZIOA.S.D. TRA LE RIGHE01:34:38 00:25:36 5.680 00:04:30 01:34:25
54 250241E53561CERIONI CARLOG.S. BANCARI ROMANI01:34:46 00:25:44 5.702 00:04:31 01:34:14
55 252243E54105CARBONI ANDREAPOD. GRUPPO SOLIDARIETA01:34:49 00:25:47 5.710 00:04:31 01:34:00
56 254244E55735URSO DOMENICORUNNERS FOR EMERGENCY01:34:53 00:25:51 5.721 00:04:31 01:34:34
57 260249E56583PACCIANI STEFANOG.S. BANCARI ROMANI01:35:10 00:26:08 5.766 00:04:32 01:34:37
58 262251E57764DOMINICI TIZIANOA.S.D. LBM SPORT TEAM01:35:12 00:26:10 5.772 00:04:32 01:35:08
59 266255E58453MENGARELLI MASSIMILIANOA.S.D. RUN FOR FUN01:35:38 00:26:36 5.841 00:04:33 01:34:24
60 267256E59379MARROCCHINI ANDREAASD PODISTICA PRIMAVALLE01:35:39 00:26:37 5.843 00:04:33 01:35:29
61 271260E601168BRIENZA MAUROG.S. CAT SPORT ROMA01:36:00 00:26:58 5.898 00:04:34 01:35:36
62 276265E611067TORNARI MARCOA.S.D. ATLETICA MONTE MARIO01:36:17 00:27:15 5.943 00:04:35 01:36:04
63 295281E62977VINCI STEFANOASD SPIRITI LIBERI POMEZIA01:37:04 00:28:02 6.064 00:04:37 01:36:32
64 299285E63264CRISCENTI COSIMOPODISTICA APRILIA01:37:18 00:28:16 6.100 00:04:38 01:36:31
65 304290E64396PERFETTO VITALIANOA.S.D. PIANO MA ARRIVIAMO01:37:27 00:28:25 6.123 00:04:38 01:36:49
66 308293E65628MASSUCCI FABIOASD U.S. ROMA 8301:37:32 00:28:30 6.136 00:04:39 01:37:22
67 309294E66709D'ANGELO PIERGIORGIOA.S.D. VILLA DE SANCTIS01:37:37 00:28:35 6.149 00:04:39 01:37:18
68 310295E67778LUCCHETTI SERGIOA.S.D. LBM SPORT TEAM01:37:40 00:28:38 6.156 00:04:39 01:36:46
69 311296E681219CALCAGNINI ANGELOA.S.D. LBM SPORT TEAM01:37:41 00:28:39 6.159 00:04:39 01:37:35
70 326310E69285BIANCHINI ALEDSSANDROA.S.D. MAGIC TRAINING01:38:11 00:29:09 6.234 00:04:41 01:37:50
71 327311E70749NARDI COSTANTINOASD ATLETICA ZAGAROLO01:38:13 00:29:11 6.239 00:04:41 01:37:45
72 331315E711351ONELLI AUGUSTORUNNERS AVEZZANO01:38:21 00:29:19 6.259 00:04:41 01:37:39
73 332316E72505PROSCIUTTI VALENTINOA.S. AMATORI VILLA PAMPHILI01:38:21 00:29:19 6.259 00:04:41 01:37:22
74 342323E73133VASSELLI MICHELEPOD. GRUPPO SOLIDARIETA01:38:41 00:29:39 6.309 00:04:42 01:38:38
75 345326E741287PERIS CANCIO LLUIS FRANCESCPOD. GRUPPO SOLIDARIETA01:38:48 00:29:46 6.326 00:04:42 01:38:33
76 346327E751244ARMETI PIERLUIGIRUNCARD - INDIVIDUALI01:38:49 00:29:47 6.329 00:04:42 01:37:19
77 348329E761190MORGIA ANTONELLOG.S. CAT SPORT ROMA01:38:52 00:29:50 6.336 00:04:43 01:37:52
78 356335E77226ISABELLA FAUSTOAS.TRA. ROMA01:39:12 00:30:10 6.386 00:04:43 01:38:57
79 372351E781338DEL SETTE RAIMONDOINDIVIDUALE01:39:44 00:30:42 6.464 00:04:45 01:39:23
80 375354E79800CARLONI LORISGRUPPO MILLEPIEDI LADISPOLI01:39:54 00:30:52 6.488 00:04:45 01:39:49
81 376355E80738SOLLAZZO ALESSANDROAD SPORT AGAINST VIOLENCE01:39:54 00:30:52 6.488 00:04:45 01:39:02
82 381359E81987TALERICO SALVATOREA.S.D. ROMATLETICA FOOTWORKS01:40:03 00:31:01 6.510 00:04:46 01:39:48
83 382360E821062PICCHI SIMONEA.S.D. ATLETICA MONTE MARIO01:40:03 00:31:01 6.510 00:04:46 01:39:18
84 389366E83128TAGLIENTI MASSIMOPOD. GRUPPO SOLIDARIETA01:40:22 00:31:20 6.555 00:04:47 01:39:49
85 390367E84200CARFAGNA CLAUDIOASD OLIMPIAEUR CAMP01:40:23 00:31:21 6.558 00:04:47 01:39:35
86 391368E851001RUSSO ROBERTOA.S.D. LIBERTAS OSTIA RUNNER AVIS01:40:25 00:31:23 6.563 00:04:47 01:39:44
87 396372E861191MORLUPI ALESSANDROG.S. CAT SPORT ROMA01:40:36 00:31:34 6.589 00:04:47 01:40:17
88 397373E87322BELLINI MASSIMILIANOA.S.D. FORHANS TEAM01:40:37 00:31:35 6.591 00:04:48 01:39:05
89 401377E88177PASTINA RICCARDOA.S.D. ATLETICA PEGASO01:40:42 00:31:40 6.603 00:04:48 01:39:57
90 403379E89988GACCETTA ROMANOA.S.D. LAZIO RUNNERS TEAM01:40:45 00:31:43 6.610 00:04:48 01:40:05
91 422396E901302CACCIANI ANDREAG.S. BANCARI ROMANI01:41:19 00:32:17 6.691 00:04:50 01:40:50
92 426399E91160VENDITTI ERNESTOA.S.D. ROMA ROAD RUNNERS CLUB01:41:26 00:32:24 6.707 00:04:50 01:41:26
93 429402E921093CIARLA MARCOS.S. LAZIO ATLETICA01:41:37 00:32:35 6.733 00:04:50 01:41:10
94 433406E93114MARIANECCI FABIOPOD. GRUPPO SOLIDARIETA01:41:41 00:32:39 6.742 00:04:51 01:41:22
95 436408E94258MANDOLINI STEFANOPOD. OSTIA01:41:43 00:32:41 6.747 00:04:51 01:41:19
96 441413E95698RANIERI CLAUDIOA.S.D. ATLETICA TUSCULUM01:41:50 00:32:48 6.763 00:04:51 01:40:56
97 442414E96691CARUSO GIULIANORUNCARD - INDIVIDUALI01:41:50 00:32:48 6.763 00:04:51 01:40:41
98 452423E97384MELE GIUSEPPERUNCARD - INDIVIDUALI01:42:23 00:33:21 6.840 00:04:53 01:42:09
99 453424E98334CARNEVALI SILVIORUNCARD - INDIVIDUALI01:42:23 00:33:21 6.840 00:04:53 01:41:32
100 456427E99890DI MAIO PASQUALEASD PUROSANGUE ATHLETICS CLUB01:42:31 00:33:29 6.858 00:04:53 01:42:14
101 457428E1001297IORI ROBERTOASD SEMPRE DI CORSA TEAM01:42:32 00:33:30 6.861 00:04:53 01:41:14
102 463434E101632RAFFAELLI MARCORUNCARD - INDIVIDUALI01:42:37 00:33:35 6.872 00:04:53 01:42:17
103 464435E102790SIMEONI MARCOA.S.D. LBM SPORT TEAM01:42:38 00:33:36 6.874 00:04:53 01:41:53
104 466436E103763DI VINCENZO GIULIANOA.S.D. LBM SPORT TEAM01:42:39 00:33:37 6.877 00:04:53 01:41:56
105 467437E104357FERRETTI SIMONERUNCARD - INDIVIDUALI01:42:39 00:33:37 6.877 00:04:53 01:41:22
106 468438E105134ZAGHINI ANDREAPOD. GRUPPO SOLIDARIETA01:42:40 00:33:38 6.879 00:04:53 01:42:08
107 473443E106973FRANCULLI ANDREAA.S.D. ATLETICA TUSCULUM01:42:50 00:33:48 6.902 00:04:54 01:40:41
108 477445E107136BASILIETTI ANDREAA.S.D. ROMA ROAD RUNNERS CLUB01:42:56 00:33:54 6.916 00:04:54 01:41:38
109 490457E108109GASPARRI MARCOPOD. GRUPPO SOLIDARIETA01:43:26 00:34:24 6.984 00:04:56 01:42:57
110 491458E109711OTTAVI DANIELECALCATERRA SPORT ASD01:43:30 00:34:28 6.993 00:04:56 01:43:21
111 494461E110754CASANI GIOVANNIA.S.D. LBM SPORT TEAM01:43:36 00:34:34 7.006 00:04:56 01:43:09
112 503468E1111044TERRIBILI MASSIMILIANORUNCARD - INDIVIDUALI01:43:58 00:34:56 7.056 00:04:57 01:43:26
113 505470E1121058LUCA' DANILOA.S.D. ATLETICA MONTE MARIO01:44:02 00:35:00 7.065 00:04:57 01:42:51
114 506471E1131274VAILATI MARCORUNCARD - INDIVIDUALI01:44:04 00:35:02 7.069 00:04:57 01:43:12
115 508473E1141317GIOVAGNONI LUCAG.S. CAT SPORT ROMA01:44:06 00:35:04 7.073 00:04:57 01:43:15
116 510475E115129TRASATTI ROBERTOPOD. GRUPPO SOLIDARIETA01:44:07 00:35:05 7.076 00:04:58 01:42:19
117 526491E116633GIORDANO ALESSANDROATLETICA INPS01:44:48 00:35:46 7.166 00:04:59 01:44:14
118 527492E117697MOGLIANETTI GIANLUCAA.S.D. ATLETICA TUSCULUM01:44:53 00:35:51 7.177 00:05:00 01:44:01
119 530495E1181142DE GIACOMO LUCAATLETICA FORUM SPORT CENTER01:44:58 00:35:56 7.188 00:05:00 01:43:57
120 537501E119972TIBALDI FABIOA.S. AMATORI VILLA PAMPHILI01:45:10 00:36:08 7.215 00:05:01 01:43:49
121 539503E1201227BERNABEI ALESSANDRORUNNING CLUB MARATONA DI ROMA01:45:14 00:36:12 7.223 00:05:01 01:44:05
122 541505E121850AVARUCCI BRUNOPOD. GRUPPO SOLIDARIETA01:45:15 00:36:13 7.226 00:05:01 01:44:57
123 556519E1221276CONFORTI CLAUDIOG.S. CAT SPORT ROMA01:45:42 00:36:40 7.284 00:05:02 01:45:26
124 558521E123999LIONETTI STEFANOA.S.D. LIBERTAS OSTIA RUNNER AVIS01:45:45 00:36:43 7.291 00:05:02 01:45:05
125 567528E124439COSTI SERGIORUNNERS FOR EMERGENCY01:46:03 00:37:01 7.330 00:05:03 01:45:20
126 568529E125913DI ROLLO CLAUDIOA.S.D. PFIZER ITALIA RUNNING TEAM01:46:07 00:37:05 7.338 00:05:03 01:44:41
127 577536E1261143DI MICHELE FABRIZIOATLETICA FORUM SPORT CENTER01:46:23 00:37:21 7.372 00:05:04 01:45:30
128 584543E127881ANDREOLETTI ANTONELLOASD PUROSANGUE ATHLETICS CLUB01:46:37 00:37:35 7.402 00:05:05 01:45:25
129 590548E1281342SARGENTINI FABRIZIOA.S.D. LBM SPORT TEAM01:46:47 00:37:45 7.423 00:05:05 01:46:35
130 594552E129803ARCESE MARCORUNCARD - INDIVIDUALI01:46:54 00:37:52 7.438 00:05:05 01:45:01
131 598556E130811MAMMUCCI SALVATOREA.S.D. ATHLETIC SEA RUNNERS01:47:01 00:37:59 7.453 00:05:06 01:46:23
132 605562E1311136TORNESE PAOLOA.S.C.D. ISOLA SACRA01:47:09 00:38:07 7.470 00:05:06 01:46:26
133 608565E132851BRESCIA MAURIZIOPOD. GRUPPO SOLIDARIETA01:47:18 00:38:16 7.489 00:05:07 01:46:20
134 611568E133341COCCIA GIOVANBATTISTAKAPPAM01:47:24 00:38:22 7.501 00:05:07 01:47:11
135 612569E134559CAVARRA MARCOG.S. BANCARI ROMANI01:47:25 00:38:23 7.503 00:05:07 01:46:51
136 616572E135621TARTAGLIA LUIGIA.S.D. RUNNERS SANGEMINI01:47:32 00:38:30 7.518 00:05:07 01:47:13
137 620576E1361043GRANELLA MASSIMOA.S.D. RINCORRO01:47:41 00:38:39 7.537 00:05:08 01:46:22
138 645596E137482GOSTOLI GIANCLAUDIOA.S. AMATORI VILLA PAMPHILI01:48:45 00:39:43 7.669 00:05:11 01:47:58
139 646597E138194D'AGOSTINO MASSIMOA.S.D. RUNFOREVER APRILIA01:48:45 00:39:43 7.669 00:05:11 01:47:25
140 657605E139124RINALDI VINCENZOPOD. GRUPPO SOLIDARIETA01:49:08 00:40:06 7.716 00:05:12 01:48:23
141 663611E140949BONGIORNO ROSARIOA.S. AMATORI VILLA PAMPHILI01:49:21 00:40:19 7.742 00:05:12 01:48:31
142 677622E1411050CLARIONI ANDREAA.S.D. ATLETICA MONTE MARIO01:49:39 00:40:37 7.778 00:05:13 01:49:28
143 680624E142447TIBERI ROBERTORUNNERS FOR EMERGENCY01:49:47 00:40:45 7.794 00:05:14 01:48:54
144 682625E143739COSTANZO SILVESTROA.S.D. RINCORRO01:49:57 00:40:55 7.814 00:05:14 01:48:08
145 688629E144725FRANCAVILLA SERGIOASD TEAM LADISPOLI RUNNING PROFESSIONE CICLISMO01:50:08 00:41:06 7.836 00:05:15 01:49:04
146 692633E1451074CIANI DOMENICOA.S.D. GO RUNNING01:50:20 00:41:18 7.860 00:05:15 01:49:44
147 693634E146201D'ALIA MASSIMILIANOASD OLIMPIAEUR CAMP01:50:20 00:41:18 7.860 00:05:15 01:49:37
148 702643E147336CIANI ENRICOPODISTICA ALSIVM LADISPOLI ASD01:50:41 00:41:39 7.902 00:05:16 01:48:59
149 708648E148119PALUZZI ANDREAPOD. GRUPPO SOLIDARIETA01:51:02 00:42:00 7.943 00:05:17 01:49:40
150 711651E149419TROCCIA MARCORUNCARD - INDIVIDUALI01:51:07 00:42:05 7.953 00:05:18 01:50:37
151 716655E1501279ARDAS VALERIOPOD. GRUPPO SOLIDARIETA01:51:12 00:42:10 7.963 00:05:18 01:50:25
152 720659E151247PERRINO GIOACCHINOA.S.D. ATLETICA VILLA GUGLIELMI01:51:14 00:42:12 7.967 00:05:18 01:50:14
153 732670E152989TOMASSI FABRIZIOA.S.D. LAZIO RUNNERS TEAM01:51:30 00:42:28 7.998 00:05:19 01:50:40
154 740675E153659NAVARRA ANDREARUNCARD - INDIVIDUALI01:51:50 00:42:48 8.036 00:05:20 01:50:18
155 757687E154174LO SCHIAVO MAURIZIOA.S.D. ATLETICA PEGASO01:52:35 00:43:33 8.123 00:05:22 01:51:15
156 760690E155374LUCIA IOSERUNCARD - INDIVIDUALI01:52:45 00:43:43 8.142 00:05:22 01:52:27
157 762692E156460ATTANASIO FRANCESCOA.S. AMATORI VILLA PAMPHILI01:52:48 00:43:46 8.148 00:05:22 01:51:47
158 774702E157967PAITA ANDREAA.S. AMATORI VILLA PAMPHILI01:53:11 00:44:09 8.191 00:05:23 01:52:06
159 786710E1581089FELICI GABRIELEA.S.D. LUNGOILTEVERE01:53:30 00:44:28 8.227 00:05:24 01:52:19
160 788712E159489LOPAPA CARMELOA.S. AMATORI VILLA PAMPHILI01:53:42 00:44:40 8.249 00:05:25 01:52:45
161 796718E160218PROIETTI GIANLUCAPODISTICA MARE DI ROMA01:54:03 00:45:01 8.288 00:05:26 01:52:27
162 801722E161188ABATE SIMONEA.S.D. RUNFOREVER APRILIA01:54:07 00:45:05 8.296 00:05:26 01:52:40
163 805726E162598TESTAGROSSA ALESSANDROG.S. BANCARI ROMANI01:54:14 00:45:12 8.309 00:05:26 01:53:40
164 809730E163244IAQUINTA MASSIMOA.S.D. ATLETICA VILLA GUGLIELMI01:54:23 00:45:21 8.325 00:05:27 01:51:17
165 819736E164679MORRONE VINCENZOA.S.D. MAGIC TRAINING01:54:56 00:45:54 8.386 00:05:28 01:54:21
166 829745E165995CIANFAGLIONI GIANLUCAA.S.D. LIBERTAS OSTIA RUNNER AVIS01:55:30 00:46:28 8.448 00:05:30 01:53:43
167 836751E166945MENDOLA SERGIORUNCARD - INDIVIDUALI01:55:51 00:46:49 8.486 00:05:31 01:52:44
168 847757E167863MAGNANI SIMONEPOD. GRUPPO SOLIDARIETA01:56:03 00:47:01 8.507 00:05:32 01:54:18
169 848758E1681015DI GAETANO MARIOMARATHON ROMA CASTELFUSANO01:56:04 00:47:02 8.509 00:05:32 01:54:44
170 866773E169700AMADEI ANDREARUNCARD - INDIVIDUALI01:56:54 00:47:52 8.598 00:05:34 01:55:56
171 869775E1701348FIORE GIOVANNIRUNFOREVER APRILIA01:56:59 00:47:57 8.607 00:05:34 01:55:35
172 877781E171302GREGORIO CRISTIANOOSTIA FAMILYRUNNING01:57:16 00:48:14 8.637 00:05:35 01:56:20
173 894792E172300COPPONI GIORGIOOSTIA FAMILYRUNNING01:58:00 00:48:58 8.714 00:05:37 01:57:02
174 899795E173243GAVIOLI GIULIANOA.S.D. ATLETICA VILLA GUGLIELMI01:58:21 00:49:19 8.750 00:05:38 01:56:54
175 904800E1741203URCIUOLO FABRIZIO PASQUALEG.S. CAT SPORT ROMA01:58:44 00:49:42 8.790 00:05:39 01:57:26
176 915809E175658CONTINI CLAUDIORUNCARD - INDIVIDUALI01:59:38 00:50:36 8.882 00:05:42 01:58:23
177 919812E176197SIBILLA FELICEA.S.D. RUNFOREVER APRILIA01:59:45 00:50:43 8.893 00:05:42 01:58:23
178 926818E177587PASSA MAURIZIOG.S. BANCARI ROMANI01:59:59 00:50:57 8.917 00:05:43 01:59:32
179 928819E178512STANCLIFFE PAUL BRUCEA.S. AMATORI VILLA PAMPHILI02:00:07 00:51:05 8.930 00:05:43 01:58:50
180 941828E179463BONANNI SETTIMIOA.S. AMATORI VILLA PAMPHILI02:00:49 00:51:47 9.000 00:05:45 02:00:04
181 948833E180491MAIURI ARDUINOA.S. AMATORI VILLA PAMPHILI02:01:20 00:52:18 9.051 00:05:47 02:01:17
182 951836E181449POTENTE ENZOTIBURTINA RUNNING02:01:25 00:52:23 9.060 00:05:47 02:00:42
183 953837E182732MALTAGLIATI MASSIMILIANORUNNERS FOR EMERGENCY02:01:29 00:52:27 9.066 00:05:47 02:00:47
184 960841E183926D'ALO' GIUSEPPEA.S.D. RUNNING EVOLUTION02:01:44 00:52:42 9.091 00:05:48 02:01:12
185 967847E184809BOSSONI GUIDOA.S.D. ATHLETIC SEA RUNNERS02:02:09 00:53:07 9.131 00:05:49 02:01:01
186 969849E185237FIASCHETTI ANDREATIBURTINA RUNNING02:02:13 00:53:11 9.138 00:05:49 02:00:48
187 971851E186556CACCIARRU ANDREAG.S. BANCARI ROMANI02:02:22 00:53:20 9.152 00:05:50 02:01:09
188 986863E187616SALVAGNI STEFANOA.S.D. FORHANS TEAM02:03:17 00:54:15 9.240 00:05:52 02:02:31
189 994871E1881185IANNOLA IVANG.S. CAT SPORT ROMA02:03:55 00:54:53 9.301 00:05:54 02:03:17
190 1005878E189325BRUSCHETTI LEONARDORUNCARD - INDIVIDUALI02:04:39 00:55:37 9.369 00:05:56 02:03:07
191 1009880E190805FIORI MARCORUNCARD - INDIVIDUALI02:05:03 00:56:01 9.407 00:05:57 02:04:25
192 1011881E191554BRUNO DANILOG.S. BANCARI ROMANI02:05:19 00:56:17 9.431 00:05:58 02:04:16
193 1028892E192386MORENO CARLOA.S.D. ATLETICA VENAFRO02:06:40 00:57:38 9.555 00:06:02 02:06:01
194 1030894E193828PERNA ALESSANDROSPARTAN SPORT ACADEMY02:06:58 00:57:56 9.582 00:06:03 02:06:14
195 1034897E194533FABBRI MARZIOA.S.C.D. ISOLA SACRA02:07:15 00:58:13 9.607 00:06:04 02:07:12
196 1038900E195585PAOLINO GIUSEPPEG.S. BANCARI ROMANI02:07:24 00:58:22 9.620 00:06:04 02:06:52
197 1043905E1961262MANZO ALESSANDRORUNCARD - INDIVIDUALI02:07:44 00:58:42 9.650 00:06:05 02:06:35
198 1050911E197375MADDALENA MAURORUNCARD - INDIVIDUALI02:08:55 00:59:53 9.754 00:06:08 02:07:56
199 1051912E198312ALIBRANTI MAUROPOLISPORTIVA NUOVA LUNGHEZZA02:08:56 00:59:54 9.756 00:06:08 02:07:56
200 1060921E1991207RASCELLI ALESSANDROATLETICA FORUM SPORT CENTER02:09:43 01:00:41 9.824 00:06:11 02:08:15
201 1066925E200499PAGLIA GUGLIELMOA.S. AMATORI VILLA PAMPHILI02:10:13 01:01:11 9.867 00:06:12 02:09:46
202 1079933E201219THOMPSON GRAHAM DOUGLASPODISTICA MARE DI ROMA02:11:59 01:02:57 10.016 00:06:17 02:10:50
203 1080934E202343COSTA ENRICOPAM MONDOVĚ02:12:08 01:03:06 10.028 00:06:18 02:10:52
204 1089941E203557CARIA MASSIMOG.S. BANCARI ROMANI02:13:18 01:04:16 10.124 00:06:21 02:12:31
205 1094944E204502PEZZOTTA STEFANOA.S. AMATORI VILLA PAMPHILI02:13:50 01:04:48 10.167 00:06:22 02:12:09
206 1098946E2051172COVINO DARIOG.S. CAT SPORT ROMA02:14:34 01:05:32 10.226 00:06:25 02:13:24
207 1104950E206836FOGLIA EMILIANOS.S. LAZIO ATLETICA02:15:18 01:06:16 10.285 00:06:27 02:14:11
208 1105951E207425WEISS OLIVER WERNER JURGENA.S.D. LBM SPORT TEAM02:15:25 01:06:23 10.294 00:06:27 02:13:42
209 1119960E208868PROSPERINI STEFANOPOD. GRUPPO SOLIDARIETA02:20:36 01:11:34 10.689 00:06:42 02:18:58
210 1127967E209959LUCHETTI MARCOA.S. AMATORI VILLA PAMPHILI02:23:29 01:14:27 10.896 00:06:50 02:22:19
211 1133970E210509SANNINO CATELLOA.S. AMATORI VILLA PAMPHILI02:25:20 01:16:18 11.025 00:06:55 02:24:00
212 1147980E211155RANUCCI ALESSANDROA.S.D. ROMA ROAD RUNNERS CLUB02:36:25 01:27:23 11.731 00:07:27 02:35:08
Righe per pagina::     TUTTE    |   30   |   50   |   100